メインページ
METAR-TAF:

METAR-TAF

空港 :

ハガニア, グアム, アメリカ合衆国

グアム国際空港

緯度: 13-29N, 経度: 144-48E, 海抜: 91m

現時点の気象観測

当レポートは6分前の20:54(UTC)に作成
北東の風 10kt
気温 26°C
湿度 89%
気圧 1016 hPa
視程: 14.5km
晴天

METAR: PGUM 292054Z 05010KT 9SM CLR 26/24 A3000 RMK AO2 RAB05E18 SLP152 P0000 60000 T02560244 53010

時間: 07:00 (21:00 UTC)

予報

当レポートは3時間26分前の17:34(UTC)に作成
予報は29日の 18時(UTC)から 30日の 24時(UTC)まで有効
の風 10kt
視程: 10km
高度1100ftの雲はほとんどない
高度4000ftの千切れ雲あり
高度8000ftの曇り
近辺でにわか雨
29日の 18時(UTC)から 29日の 22時(UTC)まで一時的に
の風 14kt、最大20ktの突風を伴う
視程: 4.8km
高度700ftの雲はほとんどない
高度1800ftの千切れ雲あり
高度4000ftの曇り
にわか雨
29日の 2300時(UTC)から
東/北東の風 16kt、最大22ktの突風を伴う
視程: 10km
高度2200ftの雲は散在している
高度5000ftの千切れ雲あり
高度10000ftの千切れ雲あり

TAF: PGUM 291734Z 2918/3024 08010KT P6SM VCSH FEW011 BKN040 OVC080 TEMPO 2918/2922 09014G20KT 3SM SHRA FEW007 BKN018 OVC040 FM292300 06016G22KT P6SM SCT022 BKN050 BKN100

4,000以上の空港の気象観測と天気予報(METAR報とTAF報)

利用可能な観測所は地図上に黄色い丸と赤い丸で示す。

丸の上にカーソルを重ねると観測所名を参照できる。

次にクリックすると気象観測と天気予報を参照できる。

マップの切り替え:黒色「×」印の緑ボタンをクリックして拡大、「-」印の緑ボタンをクリックして縮小、緑色の三角印をクリックして隣りの地図に切り替え


METAR-TAF: